Ringsted, Iowa
Current Conditions -  °F | °C
As of 11:52 AM on Thursday 30 Oct 2014 (Local Time) from KEST Reporting Station
Few Clouds Few Clouds  
Wind Chill: 51°   Ceiling: Unl
Heat Index: 51°   Visibility: 10mi
Dew Point: 35°   Wind: 9mph
Humidity: 54%   Direction: 10°N
Pressure: 30.04"   Gusts: NA
Location:  43.29°N, 94.51°W
Report Text: KEST 301652Z AUTO 01008KT 10SM FEW070 11/02 A3004 RMK AO2 SLP181 T01060017
Loading
Personal Weather Stations






























Interactive Weather Map
Tropical Storm Tracking
New forecast layout! Learn more

10-Day Weather Forecast

Advertisements
Track Severe Weather on mobile